createdAt,value
2022-10-22T00:01:55.006Z,2.20
2022-10-22T00:04:22.583Z,2.33
2022-10-22T00:06:49.750Z,2.20
2022-10-22T00:09:17.009Z,2.00
2022-10-22T00:11:44.191Z,2.30
2022-10-22T00:14:11.883Z,2.10
2022-10-22T00:16:39.019Z,2.33
2022-10-22T00:19:06.141Z,2.15
2022-10-22T00:21:33.272Z,2.00
2022-10-22T00:24:00.475Z,2.10
2022-10-22T00:26:27.681Z,2.03
2022-10-22T00:28:54.961Z,2.00
2022-10-22T00:31:22.138Z,2.28
2022-10-22T00:33:49.273Z,1.98
2022-10-22T00:36:16.718Z,2.20
2022-10-22T00:38:43.876Z,2.28
2022-10-22T00:41:11.066Z,2.80
2022-10-22T00:44:01.095Z,2.20
2022-10-22T00:46:28.390Z,2.15
2022-10-22T00:48:56.621Z,2.70
2022-10-22T00:51:25.486Z,2.30
2022-10-22T00:53:56.018Z,2.40
2022-10-22T00:56:23.943Z,1.90
2022-10-22T00:58:56.451Z,2.17
2022-10-22T01:01:26.194Z,1.63
2022-10-22T01:03:53.478Z,1.63
2022-10-22T01:06:34.978Z,1.55
2022-10-22T01:09:05.145Z,1.45
2022-10-22T01:12:15.408Z,1.63
2022-10-22T01:15:41.488Z,1.60
2022-10-22T01:18:45.227Z,1.25
2022-10-22T01:22:14.964Z,1.33
2022-10-22T01:24:54.131Z,1.45
2022-10-22T01:33:45.630Z,1.20
2022-10-22T01:36:12.986Z,1.40
2022-10-22T01:38:40.259Z,1.23
2022-10-22T01:41:07.535Z,1.30
2022-10-22T01:43:34.668Z,1.40
2022-10-22T01:46:03.609Z,1.30
2022-10-22T01:48:49.490Z,1.60
2022-10-22T01:51:31.594Z,1.60
2022-10-22T01:54:13.707Z,1.40
2022-10-22T01:56:59.777Z,1.38
2022-10-22T01:59:50.891Z,1.33
2022-10-22T02:02:36.654Z,1.40
2022-10-22T02:05:06.955Z,1.60
2022-10-22T02:07:41.596Z,1.17
2022-10-22T02:10:09.058Z,1.70
2022-10-22T02:12:36.237Z,1.30
2022-10-22T02:15:04.152Z,1.30
2022-10-22T02:17:32.905Z,1.33
2022-10-22T02:20:03.866Z,1.30
2022-10-22T02:22:30.997Z,1.45
2022-10-22T02:24:58.131Z,1.35
2022-10-22T02:27:30.997Z,1.40
2022-10-22T02:30:11.484Z,1.60
2022-10-22T02:32:46.598Z,1.38
2022-10-22T02:35:17.670Z,1.48
2022-10-22T02:37:44.795Z,1.25
2022-10-22T02:40:12.006Z,1.42
2022-10-22T02:42:39.742Z,1.48
2022-10-22T02:45:07.346Z,1.48
2022-10-22T02:47:34.480Z,1.58
2022-10-22T02:50:03.568Z,1.83
2022-10-22T02:52:31.628Z,1.40
2022-10-22T02:54:58.798Z,1.73
2022-10-22T02:57:25.981Z,1.25
2022-10-22T02:59:53.117Z,1.42
2022-10-22T03:02:20.253Z,1.30
2022-10-22T03:04:47.370Z,1.55
2022-10-22T03:07:14.856Z,1.40
2022-10-22T03:09:42.126Z,1.33
2022-10-22T03:12:09.264Z,1.45
2022-10-22T03:14:36.411Z,1.42
2022-10-22T03:17:03.536Z,1.40
2022-10-22T03:19:30.790Z,1.25
2022-10-22T03:22:01.081Z,1.30
2022-10-22T03:24:34.572Z,1.40
2022-10-22T03:27:01.702Z,1.30
2022-10-22T03:29:28.921Z,1.52
2022-10-22T03:31:56.067Z,1.00
2022-10-22T03:34:23.457Z,1.23
2022-10-22T03:36:51.210Z,1.55
2022-10-22T03:39:18.336Z,1.13
2022-10-22T03:41:45.951Z,1.30
2022-10-22T03:44:13.113Z,1.13
2022-10-22T03:46:40.262Z,1.10
2022-10-22T03:49:07.388Z,1.10
2022-10-22T03:51:35.745Z,1.08
2022-10-22T03:54:03.427Z,1.25
2022-10-22T03:56:30.568Z,1.02
2022-10-22T03:58:58.171Z,1.08
2022-10-22T04:01:25.420Z,1.00
2022-10-22T04:03:52.745Z,0.93
2022-10-22T04:06:19.876Z,1.10
2022-10-22T04:08:47.135Z,0.82
2022-10-22T04:11:14.540Z,0.90
2022-10-22T04:13:41.935Z,0.98
2022-10-22T04:16:11.897Z,0.90
2022-10-22T04:18:39.328Z,1.10
2022-10-22T04:21:07.422Z,0.95
2022-10-22T04:23:34.570Z,1.45
2022-10-22T04:26:04.116Z,0.80
2022-10-22T04:28:31.255Z,0.85
2022-10-22T04:30:58.492Z,1.13
2022-10-22T04:33:26.511Z,1.17
2022-10-22T04:35:53.687Z,0.90
2022-10-22T04:38:20.813Z,0.90
2022-10-22T04:40:47.924Z,0.90
2022-10-22T04:43:15.070Z,0.95
2022-10-22T04:45:42.195Z,0.90
2022-10-22T04:48:09.356Z,0.80
2022-10-22T04:50:36.562Z,1.15
2022-10-22T04:53:03.699Z,0.98
2022-10-22T04:57:58.005Z,1.20
2022-10-22T05:00:25.119Z,0.80
2022-10-22T05:02:52.254Z,0.85
2022-10-22T05:05:19.450Z,0.68
2022-10-22T05:07:46.590Z,0.85
2022-10-22T05:10:13.746Z,0.75
2022-10-22T05:12:40.911Z,0.55
2022-10-22T05:15:08.820Z,0.75
2022-10-22T05:17:37.446Z,0.60
2022-10-22T05:20:05.436Z,0.57
2022-10-22T05:22:33.779Z,0.63
2022-10-22T05:25:01.048Z,0.60
2022-10-22T05:27:28.203Z,0.40
2022-10-22T05:29:55.420Z,0.70
2022-10-22T05:32:23.104Z,0.70
2022-10-22T05:34:50.280Z,0.52
2022-10-22T05:37:17.430Z,0.60
2022-10-22T05:39:44.614Z,0.40
2022-10-22T05:42:11.781Z,0.60
2022-10-22T05:44:40.817Z,0.60
2022-10-22T05:47:07.997Z,0.60
2022-10-22T05:49:35.423Z,0.75
2022-10-22T05:52:02.617Z,0.77
2022-10-22T05:54:29.772Z,0.50
2022-10-22T05:56:56.945Z,0.50
2022-10-22T05:59:24.081Z,0.57
2022-10-22T06:01:51.667Z,0.60
2022-10-22T06:04:18.946Z,0.52
2022-10-22T06:06:50.227Z,0.57
2022-10-22T06:09:18.603Z,0.60
2022-10-22T06:11:46.304Z,0.55
2022-10-22T06:14:13.746Z,0.50
2022-10-22T06:16:41.007Z,0.65
2022-10-22T06:19:08.288Z,0.65
2022-10-22T06:21:35.503Z,0.80
2022-10-22T06:24:02.659Z,0.80
2022-10-22T06:26:29.944Z,1.00
2022-10-22T06:28:57.295Z,0.80
2022-10-22T06:31:25.115Z,0.90
2022-10-22T06:33:52.304Z,0.70
2022-10-22T06:36:21.022Z,0.50
2022-10-22T06:38:50.839Z,0.60
2022-10-22T06:41:18.095Z,0.50
2022-10-22T06:43:47.797Z,0.60
2022-10-22T06:46:19.188Z,0.60
2022-10-22T06:48:50.979Z,0.70
2022-10-22T06:51:18.374Z,0.50
2022-10-22T06:53:45.778Z,0.77
2022-10-22T06:56:17.200Z,0.60
2022-10-22T06:58:47.569Z,0.60
2022-10-22T07:01:15.700Z,0.75
2022-10-22T07:03:43.183Z,0.57
2022-10-22T07:06:12.661Z,0.60
2022-10-22T07:08:40.211Z,0.40
2022-10-22T07:11:11.751Z,0.60
2022-10-22T07:13:39.090Z,0.65
2022-10-22T07:16:06.757Z,0.65
2022-10-22T07:18:34.336Z,0.73
2022-10-22T07:21:01.717Z,0.70
2022-10-22T07:23:29.238Z,0.77
2022-10-22T07:26:02.671Z,0.88
2022-10-22T07:28:34.084Z,0.65
2022-10-22T07:31:01.379Z,0.50
2022-10-22T07:33:28.660Z,0.50
2022-10-22T07:36:02.661Z,0.68
2022-10-22T07:38:29.962Z,0.73
2022-10-22T07:40:57.507Z,0.80
2022-10-22T07:43:24.890Z,0.90
2022-10-22T07:45:52.142Z,0.80
2022-10-22T07:48:19.438Z,0.60
2022-10-22T07:50:46.641Z,0.75
2022-10-22T07:53:13.928Z,0.80
2022-10-22T07:55:41.284Z,0.80
2022-10-22T07:58:08.552Z,0.65
2022-10-22T08:00:37.665Z,1.15
2022-10-22T08:03:05.276Z,1.20
2022-10-22T08:05:32.508Z,1.92
2022-10-22T08:07:59.677Z,1.20
2022-10-22T08:10:26.861Z,0.90
2022-10-22T08:12:54.046Z,0.80
2022-10-22T08:15:23.343Z,0.63
2022-10-22T08:17:50.507Z,0.73
2022-10-22T08:20:18.145Z,0.77
2022-10-22T08:22:45.393Z,0.75
2022-10-22T08:25:12.597Z,0.82
2022-10-22T08:27:40.126Z,1.00
2022-10-22T08:30:08.056Z,1.05
2022-10-22T08:32:35.234Z,1.00
2022-10-22T08:35:02.467Z,1.08
2022-10-22T08:37:29.623Z,0.85
2022-10-22T08:39:57.024Z,1.13
2022-10-22T08:42:43.002Z,1.02
2022-10-22T08:45:15.355Z,1.00
2022-10-22T08:48:06.797Z,0.73
2022-10-22T08:50:51.839Z,1.02
2022-10-22T08:53:21.414Z,1.00
2022-10-22T08:55:49.951Z,1.10
2022-10-22T08:58:37.705Z,1.08
2022-10-22T09:01:21.071Z,1.20
2022-10-22T09:03:55.089Z,2.63
2022-10-22T09:08:51.424Z,1.08
2022-10-22T09:11:23.898Z,1.30
2022-10-22T09:13:51.249Z,1.10
2022-10-22T09:16:20.639Z,1.88
2022-10-22T09:19:13.285Z,1.02
2022-10-22T09:22:06.233Z,1.10
2022-10-22T09:24:36.999Z,1.00
2022-10-22T09:27:26.599Z,1.02
2022-10-22T09:29:53.873Z,1.10
2022-10-22T09:32:21.359Z,1.00
2022-10-22T09:34:49.102Z,0.98
2022-10-22T09:37:17.752Z,3.20
2022-10-22T09:39:46.832Z,1.38
2022-10-22T09:42:15.763Z,1.13
2022-10-22T09:44:46.308Z,0.82
2022-10-22T09:47:43.298Z,1.25
2022-10-22T09:50:16.863Z,1.25
2022-10-22T09:52:44.742Z,2.00
2022-10-22T09:55:18.371Z,1.25
2022-10-22T09:57:53.721Z,1.10
2022-10-22T10:00:21.471Z,1.10
2022-10-22T10:02:48.718Z,1.40
2022-10-22T10:05:27.474Z,0.93
2022-10-22T10:07:54.774Z,0.90
2022-10-22T10:10:35.377Z,1.23
2022-10-22T10:13:27.985Z,1.50
2022-10-22T10:16:18.444Z,1.45
2022-10-22T10:19:07.463Z,1.27
2022-10-22T10:21:43.954Z,1.75
2022-10-22T10:24:23.246Z,1.17
2022-10-22T10:26:53.862Z,0.90
2022-10-22T10:29:39.714Z,1.20
2022-10-22T10:32:23.560Z,0.93
2022-10-22T10:35:10.478Z,1.10
2022-10-22T10:38:45.294Z,0.90
2022-10-22T10:41:36.845Z,1.15
2022-10-22T10:44:25.195Z,1.38
2022-10-22T10:47:03.233Z,1.10
2022-10-22T10:49:31.472Z,1.20
2022-10-22T10:52:35.679Z,1.25
2022-10-22T10:55:30.125Z,1.30
2022-10-22T10:58:12.432Z,1.70
2022-10-22T11:01:07.181Z,1.05
2022-10-22T11:03:58.070Z,1.00
2022-10-22T11:06:50.099Z,0.88
2022-10-22T11:09:37.248Z,1.38
2022-10-22T11:12:06.856Z,1.23
2022-10-22T11:14:58.806Z,1.30
2022-10-22T11:17:29.814Z,1.20
2022-10-22T11:20:20.889Z,1.00
2022-10-22T11:23:18.765Z,0.90
2022-10-22T11:25:48.249Z,0.95
2022-10-22T11:28:32.163Z,1.23
2022-10-22T11:31:04.198Z,0.98
2022-10-22T11:33:45.864Z,1.10
2022-10-22T11:36:13.212Z,0.80
2022-10-22T11:38:43.035Z,0.80
2022-10-22T11:41:14.316Z,0.65
2022-10-22T11:44:10.891Z,0.73
2022-10-22T11:47:08.463Z,0.60
2022-10-22T11:49:43.546Z,0.77
2022-10-22T11:52:37.920Z,1.65
2022-10-22T11:55:30.143Z,2.30
2022-10-22T11:58:01.690Z,1.85
2022-10-22T12:00:46.903Z,1.83
2022-10-22T12:03:25.145Z,1.40
2022-10-22T12:06:20.849Z,0.70
2022-10-22T12:08:54.343Z,1.05
2022-10-22T12:11:39.731Z,0.70
2022-10-22T12:14:26.449Z,0.63
2022-10-22T12:16:57.904Z,0.73
2022-10-22T12:19:33.148Z,0.70
2022-10-22T12:22:13.396Z,0.88
2022-10-22T12:24:42.341Z,0.40
2022-10-22T12:27:30.194Z,1.08
2022-10-22T12:29:58.624Z,0.90
2022-10-22T12:32:41.132Z,0.80
2022-10-22T12:35:11.947Z,2.17
2022-10-22T12:37:39.239Z,1.55
2022-10-22T12:40:36.354Z,1.60
2022-10-22T12:43:17.994Z,0.90
2022-10-22T12:45:48.520Z,1.17
2022-10-22T12:48:34.344Z,1.35
2022-10-22T12:51:02.326Z,1.70
2022-10-22T12:53:42.172Z,1.20
2022-10-22T12:56:15.874Z,2.20
2022-10-22T12:58:49.378Z,1.08
2022-10-22T13:01:17.258Z,0.90
2022-10-22T13:03:46.870Z,0.60
2022-10-22T13:06:20.875Z,0.80
2022-10-22T13:09:00.427Z,0.70
2022-10-22T13:11:53.570Z,1.00
2022-10-22T13:14:28.203Z,1.35
2022-10-22T13:17:21.500Z,1.50
2022-10-22T13:19:54.754Z,0.80
2022-10-22T13:22:26.724Z,1.00
2022-10-22T13:24:54.058Z,1.50
2022-10-22T13:27:21.245Z,1.70
2022-10-22T13:29:48.514Z,2.40
2022-10-22T13:32:34.121Z,1.00
2022-10-22T13:35:02.125Z,0.80
2022-10-22T13:37:30.279Z,1.00
2022-10-22T13:39:57.498Z,1.00
2022-10-22T13:42:24.987Z,0.73
2022-10-22T13:44:52.290Z,0.90
2022-10-22T13:47:27.998Z,1.00
2022-10-22T13:50:00.306Z,1.33
2022-10-22T13:52:30.004Z,0.90
2022-10-22T13:54:57.322Z,0.98
2022-10-22T13:57:26.154Z,0.70
2022-10-22T13:59:53.380Z,3.75
2022-10-22T14:02:24.548Z,5.15
2022-10-22T14:04:51.920Z,5.07
2022-10-22T14:07:19.169Z,7.55
2022-10-22T14:09:46.482Z,4.05
2022-10-22T14:12:19.776Z,1.13
2022-10-22T14:14:49.629Z,1.50
2022-10-22T14:17:19.525Z,0.90
2022-10-22T14:19:48.179Z,0.90
2022-10-22T14:22:18.536Z,1.38
2022-10-22T14:24:46.194Z,1.33
2022-10-22T14:27:14.453Z,19.23
2022-10-22T14:29:41.801Z,7.88
2022-10-22T14:32:21.545Z,3.28
2022-10-22T14:34:51.074Z,5.88
2022-10-22T14:37:19.339Z,33.95
2022-10-22T14:39:55.010Z,37.17
2022-10-22T14:42:22.455Z,10.70
2022-10-22T14:44:49.938Z,9.85
2022-10-22T14:47:17.186Z,8.15
2022-10-22T14:49:44.496Z,7.18
2022-10-22T14:52:14.227Z,3.03
2022-10-22T14:54:42.461Z,3.47
2022-10-22T14:57:11.349Z,2.92
2022-10-22T14:59:38.542Z,3.22
2022-10-22T15:02:05.996Z,3.05
2022-10-22T15:04:33.325Z,2.72
2022-10-22T15:07:00.575Z,3.10
2022-10-22T15:09:27.847Z,2.92
2022-10-22T15:11:58.205Z,3.55
2022-10-22T15:14:25.455Z,2.90
2022-10-22T15:16:52.815Z,4.00
2022-10-22T15:19:20.135Z,11.55
2022-10-22T15:21:49.572Z,9.35
2022-10-22T15:24:16.920Z,8.20
2022-10-22T15:26:44.288Z,7.90
2022-10-22T15:29:14.191Z,9.45
2022-10-22T15:31:53.665Z,12.63
2022-10-22T15:34:25.487Z,13.38
2022-10-22T15:36:59.325Z,7.95
2022-10-22T15:39:26.866Z,8.77
2022-10-22T15:41:57.359Z,7.82
2022-10-22T15:44:28.956Z,7.72
2022-10-22T15:46:56.360Z,6.75
2022-10-22T15:49:28.414Z,5.80
2022-10-22T15:51:55.723Z,5.93
2022-10-22T15:54:28.563Z,4.72
2022-10-22T15:56:56.674Z,4.43
2022-10-22T15:59:24.385Z,4.60
2022-10-22T16:01:51.671Z,16.15
2022-10-22T16:04:18.923Z,11.85
2022-10-22T16:06:48.624Z,12.25
2022-10-22T16:09:18.445Z,8.27
2022-10-22T16:11:46.010Z,3.00
2022-10-22T16:14:15.025Z,3.10
2022-10-22T16:16:44.268Z,3.10
2022-10-22T16:19:12.411Z,4.93
2022-10-22T16:21:39.757Z,6.68
2022-10-22T16:24:08.027Z,5.50
2022-10-22T16:26:35.931Z,4.68
2022-10-22T16:29:04.879Z,4.07
2022-10-22T16:31:32.230Z,3.50
2022-10-22T16:33:59.461Z,2.75
2022-10-22T16:36:26.842Z,2.40
2022-10-22T16:38:54.141Z,3.50
2022-10-22T16:41:22.639Z,3.60
2022-10-22T16:43:51.148Z,3.20
2022-10-22T16:46:19.685Z,3.20
2022-10-22T16:48:47.487Z,4.70
2022-10-22T16:51:15.959Z,4.90
2022-10-22T16:53:43.293Z,8.40
2022-10-22T16:56:14.237Z,15.77
2022-10-22T16:58:46.087Z,18.83
2022-10-22T17:01:17.660Z,15.27
2022-10-22T17:03:45.421Z,15.70
2022-10-22T17:06:12.898Z,21.00
2022-10-22T17:08:40.386Z,24.63
2022-10-22T17:11:18.401Z,20.05
2022-10-22T17:13:46.743Z,19.05
2022-10-22T17:16:15.427Z,16.20
2022-10-22T17:18:43.492Z,13.68
2022-10-22T17:21:10.963Z,14.75
2022-10-22T17:23:38.503Z,15.05
2022-10-22T17:26:07.116Z,15.85
2022-10-22T17:28:35.778Z,15.20
2022-10-22T17:31:02.925Z,14.60
2022-10-22T17:33:31.395Z,15.25
2022-10-22T17:35:58.568Z,14.82
2022-10-22T17:38:25.797Z,16.85
2022-10-22T17:40:52.998Z,15.82
2022-10-22T17:43:20.157Z,15.25
2022-10-22T17:45:47.505Z,14.27
2022-10-22T17:48:14.632Z,15.10
2022-10-22T17:50:45.735Z,15.27
2022-10-22T17:53:14.157Z,15.70
2022-10-22T17:55:41.459Z,16.42
2022-10-22T17:58:08.799Z,16.33
2022-10-22T18:00:36.097Z,16.30
2022-10-22T18:03:03.530Z,15.13
2022-10-22T18:05:30.661Z,14.38
2022-10-22T18:07:57.928Z,13.82
2022-10-22T18:10:25.340Z,13.93
2022-10-22T18:12:52.670Z,14.00
2022-10-22T18:15:19.855Z,13.43
2022-10-22T18:17:50.104Z,14.10
2022-10-22T18:20:17.373Z,13.13
2022-10-22T18:22:45.484Z,13.18
2022-10-22T18:25:12.911Z,18.70
2022-10-22T18:27:40.487Z,19.55
2022-10-22T18:30:08.307Z,19.25
2022-10-22T18:32:35.474Z,15.90
2022-10-22T18:35:02.725Z,13.55
2022-10-22T18:37:30.438Z,11.90
2022-10-22T18:39:57.621Z,10.63
2022-10-22T18:42:26.449Z,11.18
2022-10-22T18:44:56.551Z,12.93
2022-10-22T18:47:23.980Z,13.75
2022-10-22T18:49:51.687Z,12.43
2022-10-22T18:52:19.077Z,11.15
2022-10-22T18:54:46.404Z,9.70
2022-10-22T18:57:13.577Z,9.35
2022-10-22T18:59:40.729Z,8.52
2022-10-22T19:02:09.411Z,7.80
2022-10-22T19:04:37.315Z,7.45
2022-10-22T19:07:05.211Z,7.75
2022-10-22T19:09:32.466Z,7.82
2022-10-22T19:11:59.822Z,6.72
2022-10-22T19:14:27.191Z,6.60
2022-10-22T19:16:54.331Z,6.47
2022-10-22T19:19:21.942Z,7.35
2022-10-22T19:21:49.206Z,7.28
2022-10-22T19:24:17.382Z,6.38
2022-10-22T19:26:44.777Z,6.30
2022-10-22T19:29:12.114Z,6.68
2022-10-22T19:31:40.778Z,6.70
2022-10-22T19:34:08.143Z,8.27
2022-10-22T19:36:35.857Z,7.72
2022-10-22T19:39:03.149Z,7.03
2022-10-22T19:41:30.924Z,7.40
2022-10-22T19:43:58.402Z,7.03
2022-10-22T19:46:25.799Z,7.13
2022-10-22T19:48:53.118Z,6.75
2022-10-22T19:51:21.527Z,6.80
2022-10-22T19:53:49.012Z,5.88
2022-10-22T19:56:20.436Z,5.50
2022-10-22T19:58:47.726Z,5.35
2022-10-22T20:01:16.147Z,5.63
2022-10-22T20:03:43.435Z,5.28
2022-10-22T20:06:11.310Z,4.88
2022-10-22T20:08:38.917Z,5.22
2022-10-22T20:11:10.749Z,5.28
2022-10-22T20:16:05.603Z,5.38
2022-10-22T20:18:35.875Z,5.40
2022-10-22T20:21:04.957Z,4.97
2022-10-22T20:23:32.378Z,4.95
2022-10-22T20:25:59.647Z,5.03
2022-10-22T20:28:27.016Z,4.93
2022-10-22T20:30:54.178Z,4.93
2022-10-22T20:33:21.391Z,4.80
2022-10-22T20:36:01.758Z,4.85
2022-10-22T20:38:29.289Z,5.10
2022-10-22T20:41:04.037Z,4.70
2022-10-22T20:43:31.224Z,4.90
2022-10-22T20:45:58.508Z,4.35
2022-10-22T20:48:29.306Z,4.35
2022-10-22T20:50:59.364Z,4.28
2022-10-22T20:53:27.100Z,4.00
2022-10-22T20:55:56.650Z,4.30
2022-10-22T20:58:26.687Z,4.38
2022-10-22T21:00:54.573Z,4.32
2022-10-22T21:03:21.914Z,3.80
2022-10-22T21:05:49.213Z,4.38
2022-10-22T21:08:17.469Z,3.97
2022-10-22T21:10:46.368Z,4.10
2022-10-22T21:13:13.953Z,4.45
2022-10-22T21:15:41.293Z,3.83
2022-10-22T21:18:08.653Z,4.15
2022-10-22T21:20:35.862Z,4.10
2022-10-22T21:23:03.067Z,4.10
2022-10-22T21:25:30.242Z,3.70
2022-10-22T21:27:57.537Z,3.80
2022-10-22T21:30:24.691Z,4.00
2022-10-22T21:32:52.082Z,4.07
2022-10-22T21:35:19.241Z,4.00
2022-10-22T21:37:46.450Z,3.67
2022-10-22T21:40:13.688Z,3.92
2022-10-22T21:42:41.071Z,3.50
2022-10-22T21:45:12.382Z,3.60
2022-10-22T21:47:42.235Z,3.13
2022-10-22T21:50:09.722Z,3.70
2022-10-22T21:52:37.135Z,3.25
2022-10-22T21:55:04.586Z,3.45
2022-10-22T21:57:31.709Z,3.47
2022-10-22T21:59:58.967Z,3.47
2022-10-22T22:02:28.497Z,3.60
2022-10-22T22:04:55.929Z,3.47
2022-10-22T22:07:23.120Z,3.42
2022-10-22T22:09:51.103Z,3.28
2022-10-22T22:12:18.648Z,3.45
2022-10-22T22:14:45.865Z,2.88
2022-10-22T22:17:15.272Z,3.20
2022-10-22T22:19:42.595Z,3.00
2022-10-22T22:22:09.806Z,3.13
2022-10-22T22:24:38.327Z,3.05
2022-10-22T22:27:05.746Z,2.95
2022-10-22T22:29:32.927Z,2.80
2022-10-22T22:32:00.056Z,2.60
2022-10-22T22:34:27.421Z,2.80
2022-10-22T22:36:54.591Z,2.60
2022-10-22T22:39:24.971Z,2.88
2022-10-22T22:41:52.227Z,2.72
2022-10-22T22:44:19.686Z,3.00
2022-10-22T22:46:46.894Z,2.90
2022-10-22T22:49:14.166Z,2.72
2022-10-22T22:51:41.815Z,2.50
2022-10-22T22:54:09.112Z,3.38
2022-10-22T22:56:36.947Z,3.10
2022-10-22T22:59:04.612Z,2.90
2022-10-22T23:01:36.547Z,2.70
2022-10-22T23:04:13.876Z,3.20
2022-10-22T23:06:41.107Z,3.30
2022-10-22T23:09:09.981Z,3.03
2022-10-22T23:11:37.401Z,3.00
2022-10-22T23:14:05.448Z,2.90
2022-10-22T23:16:34.105Z,3.20
2022-10-22T23:19:01.515Z,2.80
2022-10-22T23:21:33.622Z,2.90
2022-10-22T23:24:02.522Z,3.42
2022-10-22T23:26:34.274Z,3.13
2022-10-22T23:29:02.512Z,3.15
2022-10-22T23:31:29.765Z,3.45
2022-10-22T23:33:56.965Z,2.83
2022-10-22T23:36:24.211Z,2.60
2022-10-22T23:38:51.358Z,3.60
2022-10-22T23:41:18.670Z,2.42
2022-10-22T23:43:45.926Z,2.85
2022-10-22T23:46:13.429Z,2.60
2022-10-22T23:48:40.607Z,2.50
2022-10-22T23:51:11.744Z,2.58
2022-10-22T23:53:39.298Z,2.72
2022-10-22T23:56:08.055Z,2.70
2022-10-22T23:58:35.618Z,2.58
